createdAt,value
2017-02-16T00:00:33.566Z,4.08
2017-02-16T00:01:14.142Z,4.08
2017-02-16T00:01:54.706Z,4.12
2017-02-16T00:02:35.281Z,4.05
2017-02-16T00:03:15.829Z,4.13
2017-02-16T00:03:56.394Z,4.1
2017-02-16T00:04:36.995Z,4.12
2017-02-16T00:05:17.546Z,4.12
2017-02-16T00:05:58.097Z,4.1
2017-02-16T00:06:38.676Z,3.95
2017-02-16T00:07:19.242Z,4.05
2017-02-16T00:07:59.809Z,4.05
2017-02-16T00:08:40.369Z,3.95
2017-02-16T00:09:20.964Z,3.92
2017-02-16T00:10:01.519Z,3.92
2017-02-16T00:10:42.078Z,3.92
2017-02-16T00:11:22.640Z,3.96
2017-02-16T00:12:03.196Z,3.87
2017-02-16T00:12:43.775Z,3.96
2017-02-16T00:13:24.368Z,3.98
2017-02-16T00:14:04.936Z,3.96
2017-02-16T00:14:45.503Z,4.01
2017-02-16T00:15:26.060Z,3.99
2017-02-16T00:16:06.617Z,3.95
2017-02-16T00:16:47.194Z,3.96
2017-02-16T00:17:27.789Z,4.01
2017-02-16T00:18:08.373Z,3.88
2017-02-16T00:18:49.019Z,3.94
2017-02-16T00:19:29.523Z,3.99
2017-02-16T00:20:10.078Z,3.92
2017-02-16T00:20:50.642Z,3.96
2017-02-16T00:21:31.195Z,3.92
2017-02-16T00:22:11.747Z,3.87
2017-02-16T00:22:52.295Z,3.98
2017-02-16T00:23:32.893Z,3.87
2017-02-16T00:24:13.501Z,3.98
2017-02-16T00:24:54.110Z,3.86
2017-02-16T00:25:34.676Z,3.92
2017-02-16T00:26:15.249Z,3.95
2017-02-16T00:26:55.830Z,3.86
2017-02-16T00:27:36.373Z,3.91
2017-02-16T00:28:16.912Z,3.87
2017-02-16T00:28:57.519Z,3.87
2017-02-16T00:29:38.078Z,3.86
2017-02-16T00:30:18.653Z,3.91
2017-02-16T00:30:59.220Z,3.95
2017-02-16T00:31:39.791Z,3.92
2017-02-16T00:32:20.392Z,3.92
2017-02-16T00:33:00.976Z,3.91
2017-02-16T00:33:41.538Z,3.81
2017-02-16T00:34:22.088Z,3.91
2017-02-16T00:35:02.722Z,3.86
2017-02-16T00:35:43.295Z,3.83
2017-02-16T00:36:23.900Z,3.84
2017-02-16T00:37:04.462Z,3.87
2017-02-16T00:37:45.065Z,3.81
2017-02-16T00:38:25.633Z,3.81
2017-02-16T00:39:06.198Z,3.81
2017-02-16T00:39:46.758Z,3.74
2017-02-16T00:40:27.344Z,3.83
2017-02-16T00:41:07.927Z,3.8
2017-02-16T00:41:48.525Z,3.73
2017-02-16T00:42:29.098Z,3.84
2017-02-16T00:43:09.643Z,3.78
2017-02-16T00:43:50.178Z,3.78
2017-02-16T00:44:30.862Z,3.77
2017-02-16T00:45:11.454Z,3.78
2017-02-16T00:45:52.048Z,3.86
2017-02-16T00:46:32.692Z,3.86
2017-02-16T00:47:13.288Z,3.81
2017-02-16T00:47:53.872Z,3.77
2017-02-16T00:48:34.439Z,3.76
2017-02-16T00:49:14.977Z,3.73
2017-02-16T00:49:55.545Z,3.81
2017-02-16T00:50:36.127Z,3.84
2017-02-16T00:51:16.702Z,3.78
2017-02-16T00:51:57.257Z,3.83
2017-02-16T00:52:37.827Z,3.78
2017-02-16T00:53:18.401Z,3.76
2017-02-16T00:53:58.977Z,3.8
2017-02-16T00:54:39.552Z,3.73
2017-02-16T00:55:20.120Z,3.76
2017-02-16T00:56:00.690Z,3.69
2017-02-16T00:56:41.240Z,3.7
2017-02-16T00:57:21.781Z,3.78
2017-02-16T00:58:02.347Z,3.74
2017-02-16T00:58:42.909Z,3.68
2017-02-16T00:59:23.509Z,3.68
2017-02-16T01:00:04.092Z,3.7
2017-02-16T01:00:44.629Z,3.69
2017-02-16T01:01:25.214Z,3.6
2017-02-16T01:02:05.789Z,3.59
2017-02-16T01:02:46.393Z,3.62
2017-02-16T01:03:26.952Z,3.65
2017-02-16T01:04:07.518Z,3.58
2017-02-16T01:04:48.059Z,3.68
2017-02-16T01:05:28.619Z,3.63
2017-02-16T01:06:09.184Z,3.65
2017-02-16T01:06:49.737Z,3.6
2017-02-16T01:07:30.300Z,3.59
2017-02-16T01:08:10.854Z,3.66
2017-02-16T01:08:51.413Z,3.65
2017-02-16T01:09:32.029Z,3.63
2017-02-16T01:10:12.619Z,3.6
2017-02-16T01:10:53.192Z,3.6
2017-02-16T01:11:33.755Z,3.48
2017-02-16T01:12:14.337Z,3.56
2017-02-16T01:12:54.880Z,3.51
2017-02-16T01:13:35.474Z,3.51
2017-02-16T01:14:16.060Z,3.51
2017-02-16T01:14:56.597Z,3.5
2017-02-16T01:15:37.224Z,3.56
2017-02-16T01:16:17.777Z,3.56
2017-02-16T01:16:58.359Z,3.45
2017-02-16T01:17:38.946Z,3.47
2017-02-16T01:18:19.491Z,3.42
2017-02-16T01:19:00.030Z,3.48
2017-02-16T01:19:40.613Z,3.42
2017-02-16T01:20:21.186Z,3.45
2017-02-16T01:21:01.756Z,3.44
2017-02-16T01:21:42.384Z,3.45
2017-02-16T01:22:22.969Z,3.47
2017-02-16T01:23:03.545Z,3.37
2017-02-16T01:23:44.109Z,3.47
2017-02-16T01:24:24.714Z,3.44
2017-02-16T01:25:05.273Z,3.47
2017-02-16T01:25:45.825Z,3.36
2017-02-16T01:26:26.393Z,3.44
2017-02-16T01:27:06.945Z,3.41
2017-02-16T01:27:47.507Z,3.48
2017-02-16T01:28:28.056Z,3.47
2017-02-16T01:29:08.599Z,3.47
2017-02-16T01:29:49.210Z,3.42
2017-02-16T01:30:29.800Z,3.45
2017-02-16T01:31:10.366Z,3.45
2017-02-16T01:31:50.920Z,3.53
2017-02-16T01:32:31.549Z,3.5
2017-02-16T01:33:12.104Z,3.47
2017-02-16T01:33:52.694Z,3.45
2017-02-16T01:34:33.275Z,3.5
2017-02-16T01:35:13.842Z,3.5
2017-02-16T01:35:54.399Z,3.51
2017-02-16T01:36:34.965Z,3.59
2017-02-16T01:37:15.548Z,3.53
2017-02-16T01:37:56.214Z,3.55
2017-02-16T01:38:36.781Z,3.6
2017-02-16T01:39:17.372Z,3.56
2017-02-16T01:39:57.951Z,3.56
2017-02-16T01:40:38.577Z,3.56
2017-02-16T01:41:19.147Z,3.6
2017-02-16T01:41:59.728Z,3.59
2017-02-16T01:42:40.308Z,3.59
2017-02-16T01:43:20.869Z,3.66
2017-02-16T01:44:01.405Z,3.65
2017-02-16T01:44:41.998Z,3.66
2017-02-16T01:45:22.571Z,3.78
2017-02-16T01:46:03.167Z,3.87
2017-02-16T01:46:43.735Z,3.87
2017-02-16T01:47:24.284Z,3.87
2017-02-16T01:48:04.834Z,3.87
2017-02-16T01:48:45.406Z,3.91
2017-02-16T01:49:25.984Z,3.92
2017-02-16T01:50:06.540Z,4.01
2017-02-16T01:50:47.154Z,3.98
2017-02-16T01:51:27.691Z,3.94
2017-02-16T01:52:08.264Z,3.96
2017-02-16T01:52:48.831Z,3.96
2017-02-16T01:53:29.408Z,4.08
2017-02-16T01:54:09.980Z,4.1
2017-02-16T01:54:50.529Z,4.08
2017-02-16T01:55:31.128Z,4.14
2017-02-16T01:56:11.712Z,4.12
2017-02-16T01:56:52.281Z,4.17
2017-02-16T01:57:32.833Z,4.23
2017-02-16T01:58:13.397Z,4.22
2017-02-16T01:58:53.933Z,4.24
2017-02-16T01:59:34.484Z,4.22
2017-02-16T02:00:15.044Z,4.32
2017-02-16T02:00:55.615Z,4.26
2017-02-16T02:01:36.165Z,4.23
2017-02-16T02:02:16.828Z,4.37
2017-02-16T02:02:57.408Z,4.34
2017-02-16T02:03:37.998Z,4.35
2017-02-16T02:04:18.572Z,4.4
2017-02-16T02:04:59.133Z,4.44
2017-02-16T02:05:39.722Z,4.52
2017-02-16T02:06:20.304Z,4.52
2017-02-16T02:07:00.853Z,4.59
2017-02-16T02:07:41.423Z,4.6
2017-02-16T02:08:22.084Z,4.63
2017-02-16T02:09:02.694Z,4.62
2017-02-16T02:09:43.242Z,4.62
2017-02-16T02:10:23.809Z,4.73
2017-02-16T02:11:04.403Z,4.75
2017-02-16T02:11:45.040Z,4.77
2017-02-16T02:12:25.607Z,4.75
2017-02-16T02:13:06.190Z,4.9
2017-02-16T02:13:46.776Z,4.86
2017-02-16T02:14:27.416Z,4.97
2017-02-16T02:15:07.973Z,4.94
2017-02-16T02:15:48.571Z,4.96
2017-02-16T02:16:29.167Z,4.9
2017-02-16T02:17:09.761Z,4.97
2017-02-16T02:17:50.362Z,5.05
2017-02-16T02:18:30.908Z,5.1
2017-02-16T02:19:11.475Z,4.96
2017-02-16T02:19:52.074Z,4.96
2017-02-16T02:20:32.663Z,4.96
2017-02-16T02:21:13.227Z,4.96
2017-02-16T02:21:53.776Z,5.05
2017-02-16T02:22:34.495Z,4.96
2017-02-16T02:23:15.059Z,5.11
2017-02-16T02:23:55.638Z,5.05
2017-02-16T02:24:36.182Z,5.11
2017-02-16T02:25:16.735Z,5.11
2017-02-16T02:25:57.284Z,5.17
2017-02-16T02:26:37.844Z,5.18
2017-02-16T02:27:18.444Z,5.12
2017-02-16T02:27:59.027Z,5.2
2017-02-16T02:28:39.585Z,5.26
2017-02-16T02:29:20.138Z,5.21
2017-02-16T02:30:00.709Z,5.18
2017-02-16T02:30:41.266Z,5.21
2017-02-16T02:31:21.825Z,5.2
2017-02-16T02:32:02.407Z,5.21
2017-02-16T02:32:42.972Z,5.21
2017-02-16T02:33:23.544Z,5.28
2017-02-16T02:34:04.094Z,5.23
2017-02-16T02:34:44.671Z,5.28
2017-02-16T02:35:25.256Z,5.15
2017-02-16T02:36:05.835Z,5.17
2017-02-16T02:36:46.385Z,5.15
2017-02-16T02:37:26.947Z,5.12
2017-02-16T02:38:07.536Z,5.1
2017-02-16T02:38:48.103Z,5.11
2017-02-16T02:39:28.682Z,5.07
2017-02-16T02:40:09.241Z,5
2017-02-16T02:40:49.810Z,4.96
2017-02-16T02:41:30.399Z,4.94
2017-02-16T02:42:10.960Z,5.07
2017-02-16T02:42:51.583Z,4.92
2017-02-16T02:43:32.126Z,5.05
2017-02-16T02:44:12.692Z,4.96
2017-02-16T02:44:53.249Z,4.94
2017-02-16T02:45:33.824Z,4.93
2017-02-16T02:46:14.409Z,4.93
2017-02-16T02:46:54.984Z,4.87
2017-02-16T02:47:35.542Z,4.89
2017-02-16T02:48:16.155Z,4.78
2017-02-16T02:48:56.716Z,4.86
2017-02-16T02:49:37.254Z,4.86
2017-02-16T02:50:17.815Z,4.82
2017-02-16T02:50:58.371Z,4.87
2017-02-16T02:51:38.942Z,4.84
2017-02-16T02:52:19.507Z,4.78
2017-02-16T02:53:00.095Z,4.73
2017-02-16T02:53:40.672Z,4.73
2017-02-16T02:54:21.220Z,4.7
2017-02-16T02:55:01.772Z,4.68
2017-02-16T02:55:42.317Z,4.6
2017-02-16T02:56:22.874Z,4.74
2017-02-16T02:57:03.439Z,4.66
2017-02-16T02:57:44.001Z,4.62
2017-02-16T02:58:24.555Z,4.68
2017-02-16T02:59:05.125Z,4.7
2017-02-16T02:59:45.671Z,4.7
2017-02-16T03:00:26.258Z,4.63
2017-02-16T03:01:06.829Z,4.63
2017-02-16T03:01:47.376Z,4.58
2017-02-16T03:02:27.926Z,4.58
2017-02-16T03:03:08.530Z,4.62
2017-02-16T03:03:49.107Z,4.63
2017-02-16T03:04:29.681Z,4.58
2017-02-16T03:05:10.248Z,4.58
2017-02-16T03:05:50.801Z,4.6
2017-02-16T03:06:31.383Z,4.58
2017-02-16T03:07:11.957Z,4.58
2017-02-16T03:07:52.528Z,4.59
2017-02-16T03:08:33.076Z,4.53
2017-02-16T03:09:13.634Z,4.49
2017-02-16T03:09:54.196Z,4.53
2017-02-16T03:10:34.754Z,4.49
2017-02-16T03:11:15.297Z,4.56
2017-02-16T03:11:55.875Z,4.45
2017-02-16T03:12:36.413Z,4.52
2017-02-16T03:13:16.969Z,4.55
2017-02-16T03:13:57.517Z,4.49
2017-02-16T03:14:38.093Z,4.5
2017-02-16T03:15:18.655Z,4.5
2017-02-16T03:15:59.270Z,4.56
2017-02-16T03:16:39.818Z,4.45
2017-02-16T03:17:20.384Z,4.5
2017-02-16T03:18:00.940Z,4.52
2017-02-16T03:18:41.508Z,4.44
2017-02-16T03:19:22.081Z,4.4
2017-02-16T03:20:02.652Z,4.35
2017-02-16T03:20:43.187Z,4.38
2017-02-16T03:21:23.763Z,4.34
2017-02-16T03:22:04.325Z,4.28
2017-02-16T03:22:44.918Z,4.28
2017-02-16T03:23:25.509Z,4.19
2017-02-16T03:24:06.068Z,4.19
2017-02-16T03:24:46.625Z,4.1
2017-02-16T03:25:27.191Z,4.19
2017-02-16T03:26:07.817Z,4.05
2017-02-16T03:26:48.366Z,4.08
2017-02-16T03:27:28.935Z,4.04
2017-02-16T03:28:09.485Z,3.94
2017-02-16T03:28:50.072Z,4.01
2017-02-16T03:29:30.639Z,3.99
2017-02-16T03:30:11.239Z,3.94
2017-02-16T03:30:51.839Z,3.99
2017-02-16T03:31:32.478Z,3.94
2017-02-16T03:32:13.092Z,3.94
2017-02-16T03:32:53.697Z,3.88
2017-02-16T03:33:34.284Z,3.94
2017-02-16T03:34:14.910Z,3.83
2017-02-16T03:34:55.562Z,3.84
2017-02-16T03:35:36.129Z,3.87
2017-02-16T03:36:16.694Z,3.83
2017-02-16T03:36:57.244Z,3.8
2017-02-16T03:37:37.810Z,3.66
2017-02-16T03:38:18.378Z,3.74
2017-02-16T03:38:58.951Z,3.69
2017-02-16T03:39:39.522Z,3.74
2017-02-16T03:40:20.089Z,3.73
2017-02-16T03:41:00.632Z,3.66
2017-02-16T03:41:41.206Z,3.73
2017-02-16T03:42:21.784Z,3.63
2017-02-16T03:43:02.354Z,3.7
2017-02-16T03:43:42.944Z,3.69
2017-02-16T03:44:23.501Z,3.65
2017-02-16T03:45:04.068Z,3.69
2017-02-16T03:45:44.644Z,3.6
2017-02-16T03:46:25.209Z,3.58
2017-02-16T03:47:05.798Z,3.69
2017-02-16T03:47:46.377Z,3.59
2017-02-16T03:48:26.914Z,3.48
2017-02-16T03:49:07.474Z,3.51
2017-02-16T03:49:48.020Z,3.53
2017-02-16T03:50:28.572Z,3.53
2017-02-16T03:51:09.152Z,3.4
2017-02-16T03:51:49.725Z,3.47
2017-02-16T03:52:31.169Z,3.47
2017-02-16T03:53:11.791Z,3.47
2017-02-16T03:53:52.354Z,3.41
2017-02-16T03:54:32.921Z,3.37
2017-02-16T03:55:13.483Z,3.45
2017-02-16T03:55:54.045Z,3.29
2017-02-16T03:56:34.629Z,3.4
2017-02-16T03:57:15.204Z,3.37
2017-02-16T03:57:55.743Z,3.4
2017-02-16T03:58:36.308Z,3.32
2017-02-16T03:59:16.876Z,3.4
2017-02-16T03:59:57.468Z,3.36
2017-02-16T04:00:38.027Z,3.4
2017-02-16T04:01:18.585Z,3.31
2017-02-16T04:01:59.132Z,3.31
2017-02-16T04:02:39.717Z,3.34
2017-02-16T04:03:20.281Z,3.29
2017-02-16T04:04:00.820Z,3.36
2017-02-16T04:04:41.383Z,3.41
2017-02-16T04:05:21.957Z,3.29
2017-02-16T04:06:02.533Z,3.26
2017-02-16T04:06:43.088Z,3.34
2017-02-16T04:07:23.660Z,3.29
2017-02-16T04:08:04.217Z,3.31
2017-02-16T04:08:44.788Z,3.26
2017-02-16T04:09:25.360Z,3.4
2017-02-16T04:10:05.937Z,3.4
2017-02-16T04:10:46.500Z,3.4
2017-02-16T04:11:27.052Z,3.37
2017-02-16T04:12:07.618Z,3.4
2017-02-16T04:12:48.188Z,3.31
2017-02-16T04:13:28.757Z,3.36
2017-02-16T04:14:09.316Z,3.36
2017-02-16T04:14:49.870Z,3.29
2017-02-16T04:15:30.444Z,3.37
2017-02-16T04:16:11.019Z,3.31
2017-02-16T04:16:51.581Z,3.31
2017-02-16T04:17:32.163Z,3.34
2017-02-16T04:18:12.734Z,3.32
2017-02-16T04:18:53.310Z,3.31
2017-02-16T04:19:33.869Z,3.31
2017-02-16T04:20:14.425Z,3.37
2017-02-16T04:20:54.970Z,3.31
2017-02-16T04:21:35.558Z,3.37
2017-02-16T04:22:16.162Z,3.36
2017-02-16T04:22:56.735Z,3.32
2017-02-16T04:23:37.310Z,3.26
2017-02-16T04:24:17.915Z,3.29
2017-02-16T04:24:58.467Z,3.28
2017-02-16T04:25:39.016Z,3.19
2017-02-16T04:26:19.569Z,3.14
2017-02-16T04:27:00.129Z,3.19
2017-02-16T04:27:40.717Z,3.25
2017-02-16T04:28:21.260Z,3.25
2017-02-16T04:29:01.831Z,3.19
2017-02-16T04:29:42.397Z,3.29
2017-02-16T04:30:22.955Z,3.21
2017-02-16T04:31:03.521Z,3.23
2017-02-16T04:31:44.102Z,3.16
2017-02-16T04:32:24.661Z,3.18
2017-02-16T04:33:05.256Z,3.13
2017-02-16T04:33:45.822Z,3.21
2017-02-16T04:34:26.385Z,3.19
2017-02-16T04:35:06.943Z,3.22
2017-02-16T04:35:47.492Z,3.18
2017-02-16T04:36:28.068Z,3.16
2017-02-16T04:37:08.621Z,3.21
2017-02-16T04:37:49.182Z,3.18
2017-02-16T04:38:29.754Z,3.13
2017-02-16T04:39:10.299Z,3.23
2017-02-16T04:39:50.874Z,3.19
2017-02-16T04:40:31.444Z,3.18
2017-02-16T04:41:12.031Z,3.29
2017-02-16T04:41:52.603Z,3.22
2017-02-16T04:42:33.186Z,3.31
2017-02-16T04:43:13.749Z,3.25
2017-02-16T04:43:54.307Z,3.26
2017-02-16T04:44:34.879Z,3.23
2017-02-16T04:45:15.490Z,3.25
2017-02-16T04:45:56.034Z,3.19
2017-02-16T04:46:36.618Z,3.19
2017-02-16T04:47:17.200Z,3.16
2017-02-16T04:47:57.776Z,3.08
2017-02-16T04:48:38.319Z,3.11
2017-02-16T04:49:18.887Z,3.05
2017-02-16T04:49:59.438Z,3.13
2017-02-16T04:50:40.010Z,3.1
2017-02-16T04:51:20.560Z,3.07
2017-02-16T04:52:01.148Z,3.14
2017-02-16T04:52:41.727Z,3.05
2017-02-16T04:53:22.316Z,3.07
2017-02-16T04:54:02.872Z,3.08
2017-02-16T04:54:43.444Z,3.07
2017-02-16T04:55:24.053Z,3.03
2017-02-16T04:56:04.636Z,3.08
2017-02-16T04:56:45.173Z,3.04
2017-02-16T04:57:25.780Z,3.01
2017-02-16T04:58:06.358Z,3.07
2017-02-16T04:58:46.919Z,3.07
2017-02-16T04:59:27.512Z,3.05
2017-02-16T05:00:08.091Z,3.05
2017-02-16T05:00:48.665Z,3.01
2017-02-16T05:01:29.240Z,3.08
2017-02-16T05:02:09.798Z,3.11
2017-02-16T05:02:50.362Z,3.03
2017-02-16T05:03:30.966Z,3.04
2017-02-16T05:04:11.532Z,3.05
2017-02-16T05:04:52.085Z,3.04
2017-02-16T05:05:32.636Z,2.93
2017-02-16T05:06:13.198Z,3.03
2017-02-16T05:06:53.737Z,2.92
2017-02-16T05:07:34.298Z,2.95
2017-02-16T05:08:14.881Z,2.97
2017-02-16T05:08:55.451Z,2.98
2017-02-16T05:09:36.015Z,2.93
2017-02-16T05:10:16.594Z,2.82
2017-02-16T05:10:57.158Z,2.82
2017-02-16T05:11:37.717Z,2.89
2017-02-16T05:12:18.291Z,2.89
2017-02-16T05:12:58.859Z,2.83
2017-02-16T05:13:39.438Z,2.75
2017-02-16T05:14:19.992Z,2.83
2017-02-16T05:15:00.538Z,2.79
2017-02-16T05:15:41.108Z,2.83
2017-02-16T05:16:21.659Z,2.82
2017-02-16T05:17:02.213Z,2.86
2017-02-16T05:17:42.748Z,2.86
2017-02-16T05:18:23.306Z,2.8
2017-02-16T05:19:03.875Z,2.69
2017-02-16T05:19:44.462Z,2.77
2017-02-16T05:20:25.107Z,2.68
2017-02-16T05:21:05.688Z,2.68
2017-02-16T05:21:46.243Z,2.75
2017-02-16T05:22:26.803Z,2.65
2017-02-16T05:23:07.382Z,2.62
2017-02-16T05:23:47.936Z,2.65
2017-02-16T05:24:28.511Z,2.65
2017-02-16T05:25:09.096Z,2.6
2017-02-16T05:25:49.674Z,2.67
2017-02-16T05:26:30.214Z,2.62
2017-02-16T05:27:10.783Z,2.67
2017-02-16T05:27:51.375Z,2.53
2017-02-16T05:28:31.946Z,2.64
2017-02-16T05:29:12.506Z,2.53
2017-02-16T05:29:53.068Z,2.53
2017-02-16T05:30:33.642Z,2.5
2017-02-16T05:31:14.195Z,2.54
2017-02-16T05:31:54.783Z,2.5
2017-02-16T05:32:35.359Z,2.51
2017-02-16T05:33:15.898Z,2.53
2017-02-16T05:33:56.447Z,2.53
2017-02-16T05:34:37.047Z,2.51
2017-02-16T05:35:17.597Z,2.43
2017-02-16T05:35:58.173Z,2.51
2017-02-16T05:36:38.757Z,2.5
2017-02-16T05:37:19.307Z,2.47
2017-02-16T05:37:59.883Z,2.49
2017-02-16T05:38:40.437Z,2.38
2017-02-16T05:39:21.001Z,2.35
2017-02-16T05:40:01.554Z,2.43
2017-02-16T05:40:42.146Z,2.35
2017-02-16T05:41:22.711Z,2.36
2017-02-16T05:42:03.290Z,2.39
2017-02-16T05:42:43.857Z,2.36
2017-02-16T05:43:24.434Z,2.33
2017-02-16T05:44:05.012Z,2.38
2017-02-16T05:44:45.567Z,2.31
2017-02-16T05:45:26.165Z,2.26
2017-02-16T05:46:06.769Z,2.24
2017-02-16T05:46:47.360Z,2.22
2017-02-16T05:47:27.938Z,2.24
2017-02-16T05:48:08.520Z,2.28
2017-02-16T05:48:49.172Z,2.25
2017-02-16T05:49:29.759Z,2.24
2017-02-16T05:50:10.348Z,2.26
2017-02-16T05:50:50.935Z,2.25
2017-02-16T05:51:31.507Z,2.31
2017-02-16T05:52:12.061Z,2.17
2017-02-16T05:52:52.639Z,2.17
2017-02-16T05:53:33.229Z,2.2
2017-02-16T05:54:13.778Z,2.26
2017-02-16T05:54:54.344Z,2.28
2017-02-16T05:55:34.933Z,2.26
2017-02-16T05:56:15.534Z,2.24
2017-02-16T05:56:56.091Z,2.22
2017-02-16T05:57:36.650Z,2.26
2017-02-16T05:58:17.208Z,2.2
2017-02-16T05:58:57.810Z,2.24
2017-02-16T05:59:38.335Z,2.17
2017-02-16T06:00:18.897Z,2.17
2017-02-16T06:00:59.484Z,2.14
2017-02-16T06:01:40.064Z,2.06
2017-02-16T06:02:20.665Z,2.15
2017-02-16T06:03:01.228Z,2.07
2017-02-16T06:03:41.796Z,2.18
2017-02-16T06:04:22.348Z,2.13
2017-02-16T06:05:03.111Z,2.07
2017-02-16T06:05:43.676Z,2.07
2017-02-16T06:06:24.251Z,2.17
2017-02-16T06:07:04.838Z,2.15
2017-02-16T06:07:45.442Z,2.04
2017-02-16T06:08:25.988Z,2.18
2017-02-16T06:09:06.542Z,2.17
2017-02-16T06:09:47.094Z,2
2017-02-16T06:10:27.664Z,2.17
2017-02-16T06:11:08.277Z,2.17
2017-02-16T06:11:48.880Z,2.17
2017-02-16T06:12:29.447Z,2.08
2017-02-16T06:13:10.010Z,2.06
2017-02-16T06:13:50.606Z,2.04
2017-02-16T06:14:31.192Z,2.1
2017-02-16T06:15:11.750Z,2.06
2017-02-16T06:15:52.314Z,2.02
2017-02-16T06:16:33.006Z,2.08
2017-02-16T06:17:13.570Z,2.1
2017-02-16T06:17:54.124Z,2.07
2017-02-16T06:18:34.751Z,2.08
2017-02-16T06:19:15.312Z,2.06
2017-02-16T06:19:55.879Z,2.04
2017-02-16T06:20:36.431Z,2
2017-02-16T06:21:16.986Z,2.08
2017-02-16T06:21:57.588Z,2.1
2017-02-16T06:22:38.172Z,2
2017-02-16T06:23:18.762Z,2
2017-02-16T06:23:59.340Z,2.02
2017-02-16T06:24:39.890Z,2.06
2017-02-16T06:25:20.484Z,1.92
2017-02-16T06:26:01.034Z,1.94
2017-02-16T06:26:41.677Z,1.94
2017-02-16T06:27:22.236Z,1.92
2017-02-16T06:28:02.796Z,1.94
2017-02-16T06:28:43.346Z,1.92
2017-02-16T06:29:23.918Z,1.94
2017-02-16T06:30:04.487Z,1.97
2017-02-16T06:30:45.052Z,2
2017-02-16T06:31:25.630Z,1.95
2017-02-16T06:32:06.217Z,1.99
2017-02-16T06:32:46.780Z,1.94
2017-02-16T06:33:27.355Z,1.99
2017-02-16T06:34:07.939Z,2.02
2017-02-16T06:34:48.534Z,1.91
2017-02-16T06:35:29.116Z,1.92
2017-02-16T06:36:09.703Z,1.97
2017-02-16T06:36:50.276Z,1.94
2017-02-16T06:37:30.857Z,1.94
2017-02-16T06:38:11.406Z,1.89
2017-02-16T06:38:51.954Z,1.92
2017-02-16T06:39:32.516Z,1.89
2017-02-16T06:40:13.084Z,1.99
2017-02-16T06:40:53.650Z,1.99
2017-02-16T06:41:34.233Z,1.91
2017-02-16T06:42:14.807Z,1.99
2017-02-16T06:42:55.382Z,1.88
2017-02-16T06:43:35.929Z,1.97
2017-02-16T06:44:16.485Z,1.84
2017-02-16T06:44:57.031Z,1.85
2017-02-16T06:45:37.604Z,1.91
2017-02-16T06:46:18.223Z,1.88
2017-02-16T06:46:58.770Z,1.89
2017-02-16T06:47:39.349Z,1.89
2017-02-16T06:48:19.955Z,1.91
2017-02-16T06:49:00.535Z,1.89
2017-02-16T06:49:41.096Z,1.89
2017-02-16T06:50:21.671Z,1.89
2017-02-16T06:51:02.291Z,1.87
2017-02-16T06:51:42.870Z,1.87
2017-02-16T06:52:23.474Z,1.81
2017-02-16T06:53:04.031Z,1.87
2017-02-16T06:53:44.593Z,1.91
2017-02-16T06:54:25.205Z,1.81
2017-02-16T06:55:05.779Z,1.89
2017-02-16T06:55:46.356Z,1.87
2017-02-16T06:56:26.930Z,1.91
2017-02-16T06:57:07.508Z,1.81
2017-02-16T06:57:48.086Z,1.85
2017-02-16T06:58:28.652Z,1.94
2017-02-16T06:59:09.395Z,1.95
2017-02-16T06:59:49.946Z,1.95
2017-02-16T07:00:30.508Z,1.97
2017-02-16T07:01:11.056Z,2
2017-02-16T07:01:51.663Z,1.89
2017-02-16T07:02:32.291Z,1.99
2017-02-16T07:03:12.917Z,2
2017-02-16T07:03:53.455Z,2
2017-02-16T07:04:34.014Z,1.99
2017-02-16T07:05:14.592Z,2.07
2017-02-16T07:05:55.148Z,2.14
2017-02-16T07:06:35.716Z,2.11
2017-02-16T07:07:16.298Z,2.04
2017-02-16T07:07:56.867Z,2.02
2017-02-16T07:08:37.420Z,2.06
2017-02-16T07:09:17.968Z,2.1
2017-02-16T07:09:58.518Z,2.08
2017-02-16T07:10:39.104Z,2.11
2017-02-16T07:11:19.663Z,2.04
2017-02-16T07:12:00.260Z,2.07
2017-02-16T07:12:40.822Z,2.18
2017-02-16T07:13:21.379Z,2.15
2017-02-16T07:14:01.948Z,2.1
2017-02-16T07:14:42.525Z,2.06
2017-02-16T07:15:23.177Z,2.08
2017-02-16T07:16:03.708Z,2.14
2017-02-16T07:16:44.274Z,2.06
2017-02-16T07:17:24.862Z,2.17
2017-02-16T07:18:05.422Z,2.24
2017-02-16T07:18:45.987Z,2.18
2017-02-16T07:19:26.542Z,2.24
2017-02-16T07:20:07.114Z,2.18
2017-02-16T07:20:47.674Z,2.28
2017-02-16T07:21:28.258Z,2.26
2017-02-16T07:22:08.791Z,2.26
2017-02-16T07:22:49.340Z,2.26
2017-02-16T07:23:29.931Z,2.26
2017-02-16T07:24:10.513Z,2.35
2017-02-16T07:24:51.070Z,2.26
2017-02-16T07:25:31.646Z,2.38
2017-02-16T07:26:12.225Z,2.33
2017-02-16T07:26:52.783Z,2.43
2017-02-16T07:27:33.374Z,2.43
2017-02-16T07:28:13.948Z,2.36
2017-02-16T07:28:54.527Z,2.43
2017-02-16T07:29:35.076Z,2.49
2017-02-16T07:30:15.652Z,2.47
2017-02-16T07:30:56.202Z,2.47
2017-02-16T07:31:36.753Z,2.43
2017-02-16T07:32:17.352Z,2.54
2017-02-16T07:32:58.817Z,2.51
2017-02-16T07:33:39.407Z,2.57
2017-02-16T07:34:19.975Z,2.51
2017-02-16T07:35:00.525Z,2.47
2017-02-16T07:35:41.090Z,2.53
2017-02-16T07:36:21.687Z,2.53
2017-02-16T07:37:02.263Z,2.56
2017-02-16T07:37:42.816Z,2.54
2017-02-16T07:38:23.363Z,2.53
2017-02-16T07:39:03.935Z,2.64
2017-02-16T07:39:44.519Z,2.67
2017-02-16T07:40:25.109Z,2.62
2017-02-16T07:41:05.906Z,2.65
2017-02-16T07:41:46.668Z,2.65
2017-02-16T07:42:27.272Z,2.62
2017-02-16T07:43:07.835Z,2.64
2017-02-16T07:43:48.421Z,2.71
2017-02-16T07:44:28.999Z,2.69
2017-02-16T07:45:09.593Z,2.71
2017-02-16T07:45:50.150Z,2.69
2017-02-16T07:46:30.729Z,2.74
2017-02-16T07:47:11.298Z,2.74
2017-02-16T07:47:51.875Z,2.82
2017-02-16T07:48:32.463Z,2.83
2017-02-16T07:49:13.033Z,2.85
2017-02-16T07:49:53.587Z,2.86
2017-02-16T07:50:34.161Z,2.85
2017-02-16T07:51:14.751Z,2.95
2017-02-16T07:51:55.316Z,2.93
2017-02-16T07:52:35.878Z,3
2017-02-16T07:53:16.506Z,2.95
2017-02-16T07:53:57.051Z,3.08
2017-02-16T07:54:37.619Z,3.11
2017-02-16T07:55:18.196Z,3.08
2017-02-16T07:55:58.771Z,3.01
2017-02-16T07:56:39.367Z,3
2017-02-16T07:57:19.936Z,3.1
2017-02-16T07:58:00.515Z,3.08
2017-02-16T07:58:41.081Z,3.1
2017-02-16T07:59:21.656Z,3.13
2017-02-16T08:00:02.237Z,3.05
2017-02-16T08:00:42.791Z,3.19
2017-02-16T08:01:23.339Z,3.08
2017-02-16T08:02:03.927Z,3.14
2017-02-16T08:02:44.515Z,3.14
2017-02-16T08:03:25.078Z,3.18
2017-02-16T08:04:05.834Z,3.18
2017-02-16T08:04:46.412Z,3.18
2017-02-16T08:05:26.998Z,3.22
2017-02-16T08:06:07.576Z,3.25
2017-02-16T08:06:48.162Z,3.25
2017-02-16T08:07:28.790Z,3.21
2017-02-16T08:08:09.355Z,3.21
2017-02-16T08:08:49.945Z,3.26
2017-02-16T08:09:30.574Z,3.29
2017-02-16T08:10:11.158Z,3.29
2017-02-16T08:10:51.843Z,3.29
2017-02-16T08:11:32.914Z,3.42
2017-02-16T08:12:13.491Z,3.41
2017-02-16T08:12:54.121Z,3.31
2017-02-16T08:13:34.731Z,3.41
2017-02-16T08:14:15.395Z,3.37
2017-02-16T08:14:55.989Z,3.47
2017-02-16T08:15:36.852Z,3.41
2017-02-16T08:16:17.656Z,3.42
2017-02-16T08:16:58.230Z,3.47
2017-02-16T08:17:38.881Z,3.41
2017-02-16T08:18:19.494Z,3.44
2017-02-16T08:19:00.081Z,3.45
2017-02-16T08:19:41.137Z,3.44
2017-02-16T08:20:21.750Z,3.42
2017-02-16T08:21:02.359Z,3.48
2017-02-16T08:21:43.014Z,3.53
2017-02-16T08:22:23.656Z,3.55
2017-02-16T08:23:04.297Z,3.56
2017-02-16T08:23:44.904Z,3.56
2017-02-16T08:24:25.480Z,3.58
2017-02-16T08:25:06.135Z,3.62
2017-02-16T08:25:46.711Z,3.59
2017-02-16T08:26:27.275Z,3.69
2017-02-16T08:27:07.833Z,3.7
2017-02-16T08:27:48.391Z,3.73
2017-02-16T08:28:28.959Z,3.77
2017-02-16T08:29:09.542Z,3.74
2017-02-16T08:29:50.104Z,3.69
2017-02-16T08:30:30.738Z,3.7
2017-02-16T08:31:11.309Z,3.76
2017-02-16T08:31:51.884Z,3.83
2017-02-16T08:32:32.524Z,3.83
2017-02-16T08:33:13.111Z,3.86
2017-02-16T08:33:53.702Z,3.81
2017-02-16T08:34:34.266Z,3.84
2017-02-16T08:35:14.855Z,3.84
2017-02-16T08:35:55.429Z,3.88
2017-02-16T08:36:36.067Z,3.87
2017-02-16T08:37:16.697Z,3.91
2017-02-16T08:37:57.277Z,3.92
2017-02-16T08:38:37.925Z,4.01
2017-02-16T08:39:18.563Z,3.99
2017-02-16T08:39:59.198Z,3.98
2017-02-16T08:40:39.791Z,3.98
2017-02-16T08:41:20.440Z,4.05
2017-02-16T08:42:01.151Z,4.12
2017-02-16T08:42:41.907Z,4.16
2017-02-16T08:43:22.493Z,4.13
2017-02-16T08:44:03.079Z,4.3
2017-02-16T08:44:43.705Z,4.23
2017-02-16T08:45:24.264Z,4.28
2017-02-16T08:46:04.856Z,4.35
2017-02-16T08:46:45.412Z,4.38
2017-02-16T08:47:25.962Z,4.4
2017-02-16T08:48:06.514Z,4.48
2017-02-16T08:48:47.103Z,4.5
2017-02-16T08:49:27.721Z,4.6
2017-02-16T08:50:08.475Z,4.63
2017-02-16T08:50:49.032Z,4.68
2017-02-16T08:51:30.169Z,4.68
2017-02-16T08:52:10.743Z,4.73
2017-02-16T08:52:51.314Z,4.84
2017-02-16T08:53:31.895Z,4.84
2017-02-16T08:54:12.471Z,4.9
2017-02-16T08:54:53.035Z,4.96
2017-02-16T08:55:33.668Z,4.96
2017-02-16T08:56:14.220Z,4.93
2017-02-16T08:56:54.821Z,5.08
2017-02-16T08:57:35.352Z,5.08
2017-02-16T08:58:15.915Z,5.15
2017-02-16T08:58:56.409Z,5.23
2017-02-16T08:59:36.990Z,5.2
2017-02-16T09:00:17.544Z,5.25
2017-02-16T09:00:58.124Z,5.28
2017-02-16T09:01:38.718Z,5.26
2017-02-16T09:02:19.357Z,5.36